sensor_id;sensor_type;location;lat;lon;timestamp;P1;durP1;ratioP1;P2;durP2;ratioP2
36931;SDS011;22847;42.654;23.370;2022-10-16T00:01:32;19.08;;;10.20;;
36931;SDS011;22847;42.654;23.370;2022-10-16T00:03:58;16.75;;;9.20;;
36931;SDS011;22847;42.654;23.370;2022-10-16T00:06:25;18.60;;;8.98;;
36931;SDS011;22847;42.654;23.370;2022-10-16T00:08:51;14.60;;;8.90;;
36931;SDS011;22847;42.654;23.370;2022-10-16T00:11:24;19.50;;;9.40;;
36931;SDS011;22847;42.654;23.370;2022-10-16T00:13:55;15.27;;;8.52;;
36931;SDS011;22847;42.654;23.370;2022-10-16T00:16:23;17.45;;;9.15;;
36931;SDS011;22847;42.654;23.370;2022-10-16T00:18:49;16.02;;;9.55;;
36931;SDS011;22847;42.654;23.370;2022-10-16T00:21:16;17.15;;;8.77;;
36931;SDS011;22847;42.654;23.370;2022-10-16T00:23:44;15.48;;;8.93;;
36931;SDS011;22847;42.654;23.370;2022-10-16T00:26:11;14.45;;;8.35;;
36931;SDS011;22847;42.654;23.370;2022-10-16T00:28:39;15.00;;;9.00;;
36931;SDS011;22847;42.654;23.370;2022-10-16T00:31:09;13.75;;;8.40;;
36931;SDS011;22847;42.654;23.370;2022-10-16T00:33:36;14.25;;;8.10;;
36931;SDS011;22847;42.654;23.370;2022-10-16T00:36:03;15.32;;;8.40;;
36931;SDS011;22847;42.654;23.370;2022-10-16T00:38:30;15.73;;;8.40;;
36931;SDS011;22847;42.654;23.370;2022-10-16T00:40:55;13.63;;;8.05;;
36931;SDS011;22847;42.654;23.370;2022-10-16T00:43:35;11.60;;;7.57;;
36931;SDS011;22847;42.654;23.370;2022-10-16T00:46:01;15.23;;;8.13;;
36931;SDS011;22847;42.654;23.370;2022-10-16T00:48:29;15.18;;;9.35;;
36931;SDS011;22847;42.654;23.370;2022-10-16T00:50:56;17.65;;;8.43;;
36931;SDS011;22847;42.654;23.370;2022-10-16T00:53:22;16.30;;;9.80;;
36931;SDS011;22847;42.654;23.370;2022-10-16T00:55:49;18.98;;;9.70;;
36931;SDS011;22847;42.654;23.370;2022-10-16T00:58:15;17.80;;;9.70;;
36931;SDS011;22847;42.654;23.370;2022-10-16T01:00:40;16.90;;;8.73;;
36931;SDS011;22847;42.654;23.370;2022-10-16T01:03:22;16.45;;;7.97;;
36931;SDS011;22847;42.654;23.370;2022-10-16T01:06:09;14.35;;;8.38;;
36931;SDS011;22847;42.654;23.370;2022-10-16T01:14:11;13.23;;;8.13;;
36931;SDS011;22847;42.654;23.370;2022-10-16T01:16:48;16.25;;;9.65;;
36931;SDS011;22847;42.654;23.370;2022-10-16T01:22:16;14.68;;;7.95;;
36931;SDS011;22847;42.654;23.370;2022-10-16T01:24:44;14.05;;;8.80;;
36931;SDS011;22847;42.654;23.370;2022-10-16T01:27:34;16.40;;;9.18;;
36931;SDS011;22847;42.654;23.370;2022-10-16T01:30:07;23.20;;;9.27;;
36931;SDS011;22847;42.654;23.370;2022-10-16T01:32:43;16.25;;;9.90;;
36931;SDS011;22847;42.654;23.370;2022-10-16T01:35:41;17.30;;;8.80;;
36931;SDS011;22847;42.654;23.370;2022-10-16T01:38:17;15.63;;;8.95;;
36931;SDS011;22847;42.654;23.370;2022-10-16T01:40:49;13.65;;;8.38;;
36931;SDS011;22847;42.654;23.370;2022-10-16T01:43:19;13.27;;;6.78;;
36931;SDS011;22847;42.654;23.370;2022-10-16T01:45:49;9.40;;;6.38;;
36931;SDS011;22847;42.654;23.370;2022-10-16T01:48:16;11.48;;;6.50;;
36931;SDS011;22847;42.654;23.370;2022-10-16T01:50:44;10.52;;;5.55;;
36931;SDS011;22847;42.654;23.370;2022-10-16T01:53:22;10.45;;;5.70;;
36931;SDS011;22847;42.654;23.370;2022-10-16T01:55:49;10.23;;;5.70;;
36931;SDS011;22847;42.654;23.370;2022-10-16T01:58:19;10.73;;;5.20;;
36931;SDS011;22847;42.654;23.370;2022-10-16T02:00:47;10.25;;;5.47;;
36931;SDS011;22847;42.654;23.370;2022-10-16T02:03:13;8.43;;;5.15;;
36931;SDS011;22847;42.654;23.370;2022-10-16T02:08:08;9.90;;;4.82;;
36931;SDS011;22847;42.654;23.370;2022-10-16T02:10:34;8.80;;;4.82;;
36931;SDS011;22847;42.654;23.370;2022-10-16T02:13:16;8.38;;;4.95;;
36931;SDS011;22847;42.654;23.370;2022-10-16T02:16:02;8.13;;;5.25;;
36931;SDS011;22847;42.654;23.370;2022-10-16T02:18:28;8.73;;;4.95;;
36931;SDS011;22847;42.654;23.370;2022-10-16T02:26:01;8.25;;;4.72;;
36931;SDS011;22847;42.654;23.370;2022-10-16T02:28:34;7.38;;;4.75;;
36931;SDS011;22847;42.654;23.370;2022-10-16T02:31:08;7.63;;;5.22;;
36931;SDS011;22847;42.654;23.370;2022-10-16T02:33:36;9.90;;;6.22;;
36931;SDS011;22847;42.654;23.370;2022-10-16T02:36:05;10.32;;;4.97;;
36931;SDS011;22847;42.654;23.370;2022-10-16T02:38:30;8.10;;;5.22;;
36931;SDS011;22847;42.654;23.370;2022-10-16T02:40:57;8.63;;;5.40;;
36931;SDS011;22847;42.654;23.370;2022-10-16T02:43:24;8.02;;;4.68;;
36931;SDS011;22847;42.654;23.370;2022-10-16T02:45:50;8.50;;;5.18;;
36931;SDS011;22847;42.654;23.370;2022-10-16T02:48:15;9.63;;;5.70;;
36931;SDS011;22847;42.654;23.370;2022-10-16T02:50:41;10.10;;;5.38;;
36931;SDS011;22847;42.654;23.370;2022-10-16T02:53:06;10.85;;;5.95;;
36931;SDS011;22847;42.654;23.370;2022-10-16T02:55:32;8.77;;;6.00;;
36931;SDS011;22847;42.654;23.370;2022-10-16T02:57:57;10.38;;;5.25;;
36931;SDS011;22847;42.654;23.370;2022-10-16T03:00:22;12.02;;;5.80;;
36931;SDS011;22847;42.654;23.370;2022-10-16T03:02:48;9.55;;;5.40;;
36931;SDS011;22847;42.654;23.370;2022-10-16T03:05:14;7.57;;;4.88;;
36931;SDS011;22847;42.654;23.370;2022-10-16T03:07:39;10.13;;;5.80;;
36931;SDS011;22847;42.654;23.370;2022-10-16T03:10:05;10.50;;;5.53;;
36931;SDS011;22847;42.654;23.370;2022-10-16T03:12:31;10.85;;;6.32;;
36931;SDS011;22847;42.654;23.370;2022-10-16T03:14:56;12.50;;;6.47;;
36931;SDS011;22847;42.654;23.370;2022-10-16T03:17:23;10.15;;;5.70;;
36931;SDS011;22847;42.654;23.370;2022-10-16T03:19:49;11.50;;;5.90;;
36931;SDS011;22847;42.654;23.370;2022-10-16T03:22:14;9.60;;;5.70;;
36931;SDS011;22847;42.654;23.370;2022-10-16T03:24:39;14.82;;;5.90;;
36931;SDS011;22847;42.654;23.370;2022-10-16T03:27:05;7.85;;;5.55;;
36931;SDS011;22847;42.654;23.370;2022-10-16T03:29:31;10.95;;;6.20;;
36931;SDS011;22847;42.654;23.370;2022-10-16T03:31:57;10.02;;;6.10;;
36931;SDS011;22847;42.654;23.370;2022-10-16T03:34:23;9.63;;;6.07;;
36931;SDS011;22847;42.654;23.370;2022-10-16T03:36:49;11.30;;;6.68;;
36931;SDS011;22847;42.654;23.370;2022-10-16T03:39:15;10.38;;;6.40;;
36931;SDS011;22847;42.654;23.370;2022-10-16T03:41:40;9.40;;;5.88;;
36931;SDS011;22847;42.654;23.370;2022-10-16T03:44:05;8.98;;;5.55;;
36931;SDS011;22847;42.654;23.370;2022-10-16T03:46:31;14.52;;;6.40;;
36931;SDS011;22847;42.654;23.370;2022-10-16T03:48:56;8.77;;;5.93;;
36931;SDS011;22847;42.654;23.370;2022-10-16T03:51:22;10.25;;;6.18;;
36931;SDS011;22847;42.654;23.370;2022-10-16T03:53:47;7.55;;;5.70;;
36931;SDS011;22847;42.654;23.370;2022-10-16T03:56:13;7.78;;;5.35;;
36931;SDS011;22847;42.654;23.370;2022-10-16T03:58:38;9.95;;;6.28;;
36931;SDS011;22847;42.654;23.370;2022-10-16T04:01:04;8.90;;;5.00;;
36931;SDS011;22847;42.654;23.370;2022-10-16T04:03:29;10.73;;;6.45;;
36931;SDS011;22847;42.654;23.370;2022-10-16T04:05:55;11.15;;;6.07;;
36931;SDS011;22847;42.654;23.370;2022-10-16T04:08:20;9.05;;;5.85;;
36931;SDS011;22847;42.654;23.370;2022-10-16T04:10:46;15.60;;;6.55;;
36931;SDS011;22847;42.654;23.370;2022-10-16T04:13:12;9.02;;;6.03;;
36931;SDS011;22847;42.654;23.370;2022-10-16T04:15:37;10.73;;;6.15;;
36931;SDS011;22847;42.654;23.370;2022-10-16T04:18:03;12.80;;;6.53;;
36931;SDS011;22847;42.654;23.370;2022-10-16T04:20:29;11.20;;;7.10;;
36931;SDS011;22847;42.654;23.370;2022-10-16T04:22:55;10.65;;;6.57;;
36931;SDS011;22847;42.654;23.370;2022-10-16T04:25:21;13.23;;;7.30;;
36931;SDS011;22847;42.654;23.370;2022-10-16T04:27:47;12.98;;;7.45;;
36931;SDS011;22847;42.654;23.370;2022-10-16T04:30:12;11.98;;;7.25;;
36931;SDS011;22847;42.654;23.370;2022-10-16T04:32:38;13.30;;;7.57;;
36931;SDS011;22847;42.654;23.370;2022-10-16T04:35:04;12.18;;;7.13;;
36931;SDS011;22847;42.654;23.370;2022-10-16T04:37:30;14.00;;;7.40;;
36931;SDS011;22847;42.654;23.370;2022-10-16T04:39:55;11.13;;;6.45;;
36931;SDS011;22847;42.654;23.370;2022-10-16T04:42:21;9.65;;;6.68;;
36931;SDS011;22847;42.654;23.370;2022-10-16T04:44:46;11.50;;;6.97;;
36931;SDS011;22847;42.654;23.370;2022-10-16T04:47:12;13.07;;;6.22;;
36931;SDS011;22847;42.654;23.370;2022-10-16T04:49:38;9.75;;;6.45;;
36931;SDS011;22847;42.654;23.370;2022-10-16T04:52:04;10.68;;;6.93;;
36931;SDS011;22847;42.654;23.370;2022-10-16T04:54:29;13.95;;;7.55;;
36931;SDS011;22847;42.654;23.370;2022-10-16T04:56:55;11.23;;;7.43;;
36931;SDS011;22847;42.654;23.370;2022-10-16T04:59:20;13.68;;;7.57;;
36931;SDS011;22847;42.654;23.370;2022-10-16T05:01:47;14.07;;;8.18;;
36931;SDS011;22847;42.654;23.370;2022-10-16T05:04:13;15.57;;;7.47;;
36931;SDS011;22847;42.654;23.370;2022-10-16T05:06:39;13.55;;;8.75;;
36931;SDS011;22847;42.654;23.370;2022-10-16T05:09:05;20.33;;;10.48;;
36931;SDS011;22847;42.654;23.370;2022-10-16T05:11:31;18.05;;;10.25;;
36931;SDS011;22847;42.654;23.370;2022-10-16T05:13:57;16.00;;;8.68;;
36931;SDS011;22847;42.654;23.370;2022-10-16T05:16:22;18.00;;;9.25;;
36931;SDS011;22847;42.654;23.370;2022-10-16T05:18:47;15.38;;;9.43;;
36931;SDS011;22847;42.654;23.370;2022-10-16T05:21:13;16.38;;;8.90;;
36931;SDS011;22847;42.654;23.370;2022-10-16T05:23:38;12.23;;;8.45;;
36931;SDS011;22847;42.654;23.370;2022-10-16T05:26:04;12.85;;;7.72;;
36931;SDS011;22847;42.654;23.370;2022-10-16T05:28:31;13.98;;;8.02;;
36931;SDS011;22847;42.654;23.370;2022-10-16T05:30:57;16.00;;;7.43;;
36931;SDS011;22847;42.654;23.370;2022-10-16T05:33:23;14.95;;;7.28;;
36931;SDS011;22847;42.654;23.370;2022-10-16T05:35:50;10.85;;;6.68;;
36931;SDS011;22847;42.654;23.370;2022-10-16T05:38:16;10.70;;;6.03;;
36931;SDS011;22847;42.654;23.370;2022-10-16T05:40:42;8.30;;;5.80;;
36931;SDS011;22847;42.654;23.370;2022-10-16T05:43:08;6.38;;;4.78;;
36931;SDS011;22847;42.654;23.370;2022-10-16T05:45:33;9.63;;;5.10;;
36931;SDS011;22847;42.654;23.370;2022-10-16T05:47:59;9.73;;;5.03;;
36931;SDS011;22847;42.654;23.370;2022-10-16T05:50:25;5.80;;;4.50;;
36931;SDS011;22847;42.654;23.370;2022-10-16T05:52:50;8.18;;;4.95;;
36931;SDS011;22847;42.654;23.370;2022-10-16T05:55:16;8.77;;;4.60;;
36931;SDS011;22847;42.654;23.370;2022-10-16T05:57:41;7.25;;;4.38;;
36931;SDS011;22847;42.654;23.370;2022-10-16T06:00:07;6.55;;;4.70;;
36931;SDS011;22847;42.654;23.370;2022-10-16T06:02:33;7.28;;;4.63;;
36931;SDS011;22847;42.654;23.370;2022-10-16T06:04:58;8.07;;;4.00;;
36931;SDS011;22847;42.654;23.370;2022-10-16T06:07:23;9.63;;;4.22;;
36931;SDS011;22847;42.654;23.370;2022-10-16T06:09:49;7.70;;;4.82;;
36931;SDS011;22847;42.654;23.370;2022-10-16T06:12:18;8.18;;;4.30;;
36931;SDS011;22847;42.654;23.370;2022-10-16T06:14:45;6.53;;;4.30;;
36931;SDS011;22847;42.654;23.370;2022-10-16T06:17:12;7.88;;;5.05;;
36931;SDS011;22847;42.654;23.370;2022-10-16T06:19:39;6.70;;;4.50;;
36931;SDS011;22847;42.654;23.370;2022-10-16T06:22:04;7.95;;;4.70;;
36931;SDS011;22847;42.654;23.370;2022-10-16T06:24:30;10.98;;;4.38;;
36931;SDS011;22847;42.654;23.370;2022-10-16T06:26:55;10.43;;;7.25;;
36931;SDS011;22847;42.654;23.370;2022-10-16T06:29:21;6.70;;;4.40;;
36931;SDS011;22847;42.654;23.370;2022-10-16T06:31:46;7.95;;;4.97;;
36931;SDS011;22847;42.654;23.370;2022-10-16T06:34:12;6.93;;;5.20;;
36931;SDS011;22847;42.654;23.370;2022-10-16T06:36:39;15.82;;;6.72;;
36931;SDS011;22847;42.654;23.370;2022-10-16T06:39:05;10.50;;;5.35;;
36931;SDS011;22847;42.654;23.370;2022-10-16T06:41:32;14.90;;;7.28;;
36931;SDS011;22847;42.654;23.370;2022-10-16T06:43:58;8.50;;;5.40;;
36931;SDS011;22847;42.654;23.370;2022-10-16T06:46:23;9.05;;;5.22;;
36931;SDS011;22847;42.654;23.370;2022-10-16T06:48:50;6.97;;;5.38;;
36931;SDS011;22847;42.654;23.370;2022-10-16T06:51:16;11.35;;;7.00;;
36931;SDS011;22847;42.654;23.370;2022-10-16T06:53:44;7.28;;;4.72;;
36931;SDS011;22847;42.654;23.370;2022-10-16T06:58:42;7.82;;;4.93;;
36931;SDS011;22847;42.654;23.370;2022-10-16T07:01:09;12.85;;;5.00;;
36931;SDS011;22847;42.654;23.370;2022-10-16T07:03:37;7.05;;;4.97;;
36931;SDS011;22847;42.654;23.370;2022-10-16T07:06:03;8.02;;;5.60;;
36931;SDS011;22847;42.654;23.370;2022-10-16T07:08:33;12.35;;;5.43;;
36931;SDS011;22847;42.654;23.370;2022-10-16T07:11:04;15.32;;;6.57;;
36931;SDS011;22847;42.654;23.370;2022-10-16T07:16:04;13.93;;;7.10;;
36931;SDS011;22847;42.654;23.370;2022-10-16T07:18:34;18.08;;;7.75;;
36931;SDS011;22847;42.654;23.370;2022-10-16T07:21:04;13.43;;;8.45;;
36931;SDS011;22847;42.654;23.370;2022-10-16T07:23:30;16.17;;;8.23;;
36931;SDS011;22847;42.654;23.370;2022-10-16T07:25:55;15.73;;;7.90;;
36931;SDS011;22847;42.654;23.370;2022-10-16T07:28:21;10.90;;;7.15;;
36931;SDS011;22847;42.654;23.370;2022-10-16T07:30:47;12.40;;;7.57;;
36931;SDS011;22847;42.654;23.370;2022-10-16T07:33:12;15.60;;;7.57;;
36931;SDS011;22847;42.654;23.370;2022-10-16T07:35:38;16.08;;;7.25;;
36931;SDS011;22847;42.654;23.370;2022-10-16T07:38:13;17.40;;;7.35;;
36931;SDS011;22847;42.654;23.370;2022-10-16T07:40:38;17.42;;;8.80;;
36931;SDS011;22847;42.654;23.370;2022-10-16T07:43:04;16.88;;;8.05;;
36931;SDS011;22847;42.654;23.370;2022-10-16T07:45:30;19.30;;;7.68;;
36931;SDS011;22847;42.654;23.370;2022-10-16T07:47:55;13.23;;;7.65;;
36931;SDS011;22847;42.654;23.370;2022-10-16T07:50:21;14.02;;;7.65;;
36931;SDS011;22847;42.654;23.370;2022-10-16T07:52:46;13.18;;;7.50;;
36931;SDS011;22847;42.654;23.370;2022-10-16T07:55:12;12.77;;;7.53;;
36931;SDS011;22847;42.654;23.370;2022-10-16T07:57:38;11.40;;;7.20;;
36931;SDS011;22847;42.654;23.370;2022-10-16T08:00:03;12.95;;;6.90;;
36931;SDS011;22847;42.654;23.370;2022-10-16T08:02:29;14.52;;;7.25;;
36931;SDS011;22847;42.654;23.370;2022-10-16T08:04:57;16.13;;;6.82;;
36931;SDS011;22847;42.654;23.370;2022-10-16T08:07:22;17.83;;;6.88;;
36931;SDS011;22847;42.654;23.370;2022-10-16T08:09:51;13.57;;;6.57;;
36931;SDS011;22847;42.654;23.370;2022-10-16T08:12:17;14.05;;;7.03;;
36931;SDS011;22847;42.654;23.370;2022-10-16T08:14:42;15.65;;;6.40;;
36931;SDS011;22847;42.654;23.370;2022-10-16T08:17:08;14.90;;;6.40;;
36931;SDS011;22847;42.654;23.370;2022-10-16T08:19:33;13.18;;;6.85;;
36931;SDS011;22847;42.654;23.370;2022-10-16T08:22:00;12.93;;;5.78;;
36931;SDS011;22847;42.654;23.370;2022-10-16T08:24:25;11.02;;;5.95;;
36931;SDS011;22847;42.654;23.370;2022-10-16T08:26:54;12.45;;;5.80;;
36931;SDS011;22847;42.654;23.370;2022-10-16T08:29:20;13.32;;;5.45;;
36931;SDS011;22847;42.654;23.370;2022-10-16T08:31:45;9.70;;;4.80;;
36931;SDS011;22847;42.654;23.370;2022-10-16T08:34:11;13.07;;;5.07;;
36931;SDS011;22847;42.654;23.370;2022-10-16T08:36:36;12.63;;;6.05;;
36931;SDS011;22847;42.654;23.370;2022-10-16T08:39:01;9.10;;;6.55;;
36931;SDS011;22847;42.654;23.370;2022-10-16T08:49:33;11.30;;;5.85;;
36931;SDS011;22847;42.654;23.370;2022-10-16T08:51:59;13.75;;;5.70;;
36931;SDS011;22847;42.654;23.370;2022-10-16T08:56:56;11.82;;;5.25;;
36931;SDS011;22847;42.654;23.370;2022-10-16T08:59:26;10.77;;;7.13;;
36931;SDS011;22847;42.654;23.370;2022-10-16T09:01:51;8.02;;;4.45;;
36931;SDS011;22847;42.654;23.370;2022-10-16T09:07:24;8.68;;;4.97;;
36931;SDS011;22847;42.654;23.370;2022-10-16T09:12:35;7.45;;;4.18;;
36931;SDS011;22847;42.654;23.370;2022-10-16T09:23:29;11.38;;;5.05;;
36931;SDS011;22847;42.654;23.370;2022-10-16T09:25:56;12.40;;;4.38;;
36931;SDS011;22847;42.654;23.370;2022-10-16T09:28:23;9.35;;;4.32;;
36931;SDS011;22847;42.654;23.370;2022-10-16T09:30:49;7.78;;;4.65;;
36931;SDS011;22847;42.654;23.370;2022-10-16T09:33:16;14.45;;;4.57;;
36931;SDS011;22847;42.654;23.370;2022-10-16T09:35:58;7.28;;;4.10;;
36931;SDS011;22847;42.654;23.370;2022-10-16T09:40:54;7.70;;;4.28;;
36931;SDS011;22847;42.654;23.370;2022-10-16T09:43:23;13.55;;;4.53;;
36931;SDS011;22847;42.654;23.370;2022-10-16T09:51:16;9.05;;;4.30;;
36931;SDS011;22847;42.654;23.370;2022-10-16T09:56:34;6.38;;;3.45;;
36931;SDS011;22847;42.654;23.370;2022-10-16T09:59:08;16.65;;;3.60;;
36931;SDS011;22847;42.654;23.370;2022-10-16T10:01:36;9.90;;;4.13;;
36931;SDS011;22847;42.654;23.370;2022-10-16T10:04:07;8.00;;;4.38;;
36931;SDS011;22847;42.654;23.370;2022-10-16T10:14:31;5.18;;;3.80;;
36931;SDS011;22847;42.654;23.370;2022-10-16T10:19:36;9.30;;;3.95;;
36931;SDS011;22847;42.654;23.370;2022-10-16T10:22:27;5.75;;;3.95;;
36931;SDS011;22847;42.654;23.370;2022-10-16T10:24:56;12.65;;;5.68;;
36931;SDS011;22847;42.654;23.370;2022-10-16T10:33:22;16.17;;;5.70;;
36931;SDS011;22847;42.654;23.370;2022-10-16T10:36:00;10.10;;;4.35;;
36931;SDS011;22847;42.654;23.370;2022-10-16T10:38:49;10.38;;;5.80;;
36931;SDS011;22847;42.654;23.370;2022-10-16T10:41:40;16.45;;;7.57;;
36931;SDS011;22847;42.654;23.370;2022-10-16T10:44:21;10.48;;;6.07;;
36931;SDS011;22847;42.654;23.370;2022-10-16T10:46:57;7.65;;;4.00;;
36931;SDS011;22847;42.654;23.370;2022-10-16T11:01:48;7.20;;;3.38;;
36931;SDS011;22847;42.654;23.370;2022-10-16T11:09:28;7.85;;;3.00;;
36931;SDS011;22847;42.654;23.370;2022-10-16T11:12:10;4.20;;;2.70;;
36931;SDS011;22847;42.654;23.370;2022-10-16T11:17:35;4.70;;;2.50;;
36931;SDS011;22847;42.654;23.370;2022-10-16T11:20:16;4.20;;;2.33;;
36931;SDS011;22847;42.654;23.370;2022-10-16T11:25:41;3.15;;;2.20;;
36931;SDS011;22847;42.654;23.370;2022-10-16T11:30:50;7.68;;;2.45;;
36931;SDS011;22847;42.654;23.370;2022-10-16T11:33:33;9.55;;;3.60;;
36931;SDS011;22847;42.654;23.370;2022-10-16T11:47:26;6.63;;;3.25;;
36931;SDS011;22847;42.654;23.370;2022-10-16T11:50:01;6.47;;;3.33;;
36931;SDS011;22847;42.654;23.370;2022-10-16T11:52:42;8.95;;;3.08;;
36931;SDS011;22847;42.654;23.370;2022-10-16T11:55:18;5.30;;;2.83;;
36931;SDS011;22847;42.654;23.370;2022-10-16T11:57:51;6.25;;;2.72;;
36931;SDS011;22847;42.654;23.370;2022-10-16T12:00:24;4.45;;;2.67;;
36931;SDS011;22847;42.654;23.370;2022-10-16T12:05:54;7.25;;;3.40;;
36931;SDS011;22847;42.654;23.370;2022-10-16T12:08:38;4.07;;;2.88;;
36931;SDS011;22847;42.654;23.370;2022-10-16T12:11:08;6.22;;;2.70;;
36931;SDS011;22847;42.654;23.370;2022-10-16T12:14:59;3.83;;;2.53;;
36931;SDS011;22847;42.654;23.370;2022-10-16T12:16:59;7.70;;;3.25;;
36931;SDS011;22847;42.654;23.370;2022-10-16T12:19:27;10.88;;;5.93;;
36931;SDS011;22847;42.654;23.370;2022-10-16T12:21:55;8.43;;;3.38;;
36931;SDS011;22847;42.654;23.370;2022-10-16T12:24:35;5.75;;;3.78;;
36931;SDS011;22847;42.654;23.370;2022-10-16T12:27:04;8.80;;;2.78;;
36931;SDS011;22847;42.654;23.370;2022-10-16T12:32:18;6.07;;;3.33;;
36931;SDS011;22847;42.654;23.370;2022-10-16T12:34:59;6.45;;;3.33;;
36931;SDS011;22847;42.654;23.370;2022-10-16T12:37:33;7.35;;;2.67;;
36931;SDS011;22847;42.654;23.370;2022-10-16T12:40:11;6.07;;;3.20;;
36931;SDS011;22847;42.654;23.370;2022-10-16T12:42:40;3.00;;;2.10;;
36931;SDS011;22847;42.654;23.370;2022-10-16T12:47:50;5.67;;;2.30;;
36931;SDS011;22847;42.654;23.370;2022-10-16T12:50:37;5.55;;;2.65;;
36931;SDS011;22847;42.654;23.370;2022-10-16T12:53:24;6.32;;;2.78;;
36931;SDS011;22847;42.654;23.370;2022-10-16T12:59:12;5.10;;;3.10;;
36931;SDS011;22847;42.654;23.370;2022-10-16T13:30:17;5.38;;;2.50;;
36931;SDS011;22847;42.654;23.370;2022-10-16T13:32:49;6.38;;;2.70;;
36931;SDS011;22847;42.654;23.370;2022-10-16T13:35:23;3.67;;;2.88;;
36931;SDS011;22847;42.654;23.370;2022-10-16T13:37:50;6.93;;;3.10;;
36931;SDS011;22847;42.654;23.370;2022-10-16T13:40:23;6.22;;;2.55;;
36931;SDS011;22847;42.654;23.370;2022-10-16T13:42:50;4.60;;;2.75;;
36931;SDS011;22847;42.654;23.370;2022-10-16T13:45:18;5.53;;;2.70;;
36931;SDS011;22847;42.654;23.370;2022-10-16T13:48:01;6.40;;;2.90;;
36931;SDS011;22847;42.654;23.370;2022-10-16T13:50:30;4.90;;;2.90;;
36931;SDS011;22847;42.654;23.370;2022-10-16T13:53:05;4.75;;;2.63;;
36931;SDS011;22847;42.654;23.370;2022-10-16T13:55:31;7.45;;;3.28;;
36931;SDS011;22847;42.654;23.370;2022-10-16T13:58:13;4.03;;;2.63;;
36931;SDS011;22847;42.654;23.370;2022-10-16T14:00:39;7.60;;;3.30;;
36931;SDS011;22847;42.654;23.370;2022-10-16T14:03:17;8.90;;;4.43;;
36931;SDS011;22847;42.654;23.370;2022-10-16T14:05:49;6.28;;;3.47;;
36931;SDS011;22847;42.654;23.370;2022-10-16T14:08:17;4.70;;;2.80;;
36931;SDS011;22847;42.654;23.370;2022-10-16T14:10:42;7.10;;;3.05;;
36931;SDS011;22847;42.654;23.370;2022-10-16T14:13:13;7.80;;;2.65;;
36931;SDS011;22847;42.654;23.370;2022-10-16T14:15:45;6.60;;;2.95;;
36931;SDS011;22847;42.654;23.370;2022-10-16T14:18:18;8.57;;;3.78;;
36931;SDS011;22847;42.654;23.370;2022-10-16T14:20:49;4.85;;;3.47;;
36931;SDS011;22847;42.654;23.370;2022-10-16T14:23:28;10.45;;;2.95;;
36931;SDS011;22847;42.654;23.370;2022-10-16T14:28:33;12.55;;;6.07;;
36931;SDS011;22847;42.654;23.370;2022-10-16T14:31:00;4.55;;;3.30;;
36931;SDS011;22847;42.654;23.370;2022-10-16T14:38:39;5.38;;;3.17;;
36931;SDS011;22847;42.654;23.370;2022-10-16T14:41:06;5.78;;;3.05;;
36931;SDS011;22847;42.654;23.370;2022-10-16T14:43:36;6.30;;;4.38;;
36931;SDS011;22847;42.654;23.370;2022-10-16T14:46:06;6.93;;;2.90;;
36931;SDS011;22847;42.654;23.370;2022-10-16T14:48:41;8.75;;;3.85;;
36931;SDS011;22847;42.654;23.370;2022-10-16T14:51:19;6.72;;;3.92;;
36931;SDS011;22847;42.654;23.370;2022-10-16T14:53:45;5.15;;;3.22;;
36931;SDS011;22847;42.654;23.370;2022-10-16T14:56:15;7.78;;;4.10;;
36931;SDS011;22847;42.654;23.370;2022-10-16T14:58:43;7.50;;;4.45;;
36931;SDS011;22847;42.654;23.370;2022-10-16T15:01:09;11.75;;;7.35;;
36931;SDS011;22847;42.654;23.370;2022-10-16T15:03:36;10.82;;;3.90;;
36931;SDS011;22847;42.654;23.370;2022-10-16T15:06:02;6.60;;;3.67;;
36931;SDS011;22847;42.654;23.370;2022-10-16T15:08:28;6.13;;;2.80;;
36931;SDS011;22847;42.654;23.370;2022-10-16T15:10:53;13.75;;;4.40;;
36931;SDS011;22847;42.654;23.370;2022-10-16T15:13:18;9.02;;;3.05;;
36931;SDS011;22847;42.654;23.370;2022-10-16T15:15:45;18.88;;;4.22;;
36931;SDS011;22847;42.654;23.370;2022-10-16T15:18:12;14.60;;;3.47;;
36931;SDS011;22847;42.654;23.370;2022-10-16T15:20:39;11.80;;;4.43;;
36931;SDS011;22847;42.654;23.370;2022-10-16T15:23:09;5.85;;;3.15;;
36931;SDS011;22847;42.654;23.370;2022-10-16T15:28:08;8.77;;;3.50;;
36931;SDS011;22847;42.654;23.370;2022-10-16T15:30:35;8.23;;;4.05;;
36931;SDS011;22847;42.654;23.370;2022-10-16T15:33:01;8.25;;;3.88;;
36931;SDS011;22847;42.654;23.370;2022-10-16T15:35:27;8.00;;;3.28;;
36931;SDS011;22847;42.654;23.370;2022-10-16T15:37:53;5.82;;;3.72;;
36931;SDS011;22847;42.654;23.370;2022-10-16T15:40:19;7.95;;;3.83;;
36931;SDS011;22847;42.654;23.370;2022-10-16T15:42:45;8.07;;;3.95;;
36931;SDS011;22847;42.654;23.370;2022-10-16T15:45:12;13.82;;;6.38;;
36931;SDS011;22847;42.654;23.370;2022-10-16T15:47:38;8.05;;;4.75;;
36931;SDS011;22847;42.654;23.370;2022-10-16T15:50:04;11.13;;;6.95;;
36931;SDS011;22847;42.654;23.370;2022-10-16T15:52:30;14.48;;;6.65;;
36931;SDS011;22847;42.654;23.370;2022-10-16T15:54:57;12.85;;;6.20;;
36931;SDS011;22847;42.654;23.370;2022-10-16T15:57:23;13.02;;;5.97;;
36931;SDS011;22847;42.654;23.370;2022-10-16T15:59:49;9.63;;;5.60;;
36931;SDS011;22847;42.654;23.370;2022-10-16T16:02:14;11.10;;;5.93;;
36931;SDS011;22847;42.654;23.370;2022-10-16T16:04:40;12.43;;;5.75;;
36931;SDS011;22847;42.654;23.370;2022-10-16T16:07:05;19.80;;;7.72;;
36931;SDS011;22847;42.654;23.370;2022-10-16T16:09:32;17.15;;;6.43;;
36931;SDS011;22847;42.654;23.370;2022-10-16T16:11:58;14.73;;;6.47;;
36931;SDS011;22847;42.654;23.370;2022-10-16T16:14:25;16.30;;;6.80;;
36931;SDS011;22847;42.654;23.370;2022-10-16T16:16:53;18.95;;;7.10;;
36931;SDS011;22847;42.654;23.370;2022-10-16T16:19:19;14.68;;;6.28;;
36931;SDS011;22847;42.654;23.370;2022-10-16T16:21:48;17.13;;;7.82;;
36931;SDS011;22847;42.654;23.370;2022-10-16T16:24:14;18.02;;;8.40;;
36931;SDS011;22847;42.654;23.370;2022-10-16T16:26:40;17.83;;;7.50;;
36931;SDS011;22847;42.654;23.370;2022-10-16T16:29:08;13.52;;;6.57;;
36931;SDS011;22847;42.654;23.370;2022-10-16T16:31:37;17.27;;;7.85;;
36931;SDS011;22847;42.654;23.370;2022-10-16T16:34:03;30.92;;;13.55;;
36931;SDS011;22847;42.654;23.370;2022-10-16T16:36:28;26.23;;;12.77;;
36931;SDS011;22847;42.654;23.370;2022-10-16T16:38:54;19.42;;;9.18;;
36931;SDS011;22847;42.654;23.370;2022-10-16T16:41:20;16.52;;;8.40;;
36931;SDS011;22847;42.654;23.370;2022-10-16T16:43:47;16.67;;;9.05;;
36931;SDS011;22847;42.654;23.370;2022-10-16T16:46:13;16.80;;;7.70;;
36931;SDS011;22847;42.654;23.370;2022-10-16T16:48:40;14.15;;;7.63;;
36931;SDS011;22847;42.654;23.370;2022-10-16T16:51:07;15.20;;;7.20;;
36931;SDS011;22847;42.654;23.370;2022-10-16T16:53:34;13.65;;;6.55;;
36931;SDS011;22847;42.654;23.370;2022-10-16T16:56:04;15.32;;;5.90;;
36931;SDS011;22847;42.654;23.370;2022-10-16T16:58:31;14.95;;;7.07;;
36931;SDS011;22847;42.654;23.370;2022-10-16T17:00:57;16.05;;;9.52;;
36931;SDS011;22847;42.654;23.370;2022-10-16T17:03:29;12.43;;;6.32;;
36931;SDS011;22847;42.654;23.370;2022-10-16T17:06:00;27.20;;;14.35;;
36931;SDS011;22847;42.654;23.370;2022-10-16T17:08:25;13.70;;;8.80;;
36931;SDS011;22847;42.654;23.370;2022-10-16T17:10:51;12.93;;;7.38;;
36931;SDS011;22847;42.654;23.370;2022-10-16T17:13:20;11.07;;;6.07;;
36931;SDS011;22847;42.654;23.370;2022-10-16T17:15:47;18.35;;;8.75;;